sensor_id;sensor_type;location;lat;lon;timestamp;P1;durP1;ratioP1;P2;durP2;ratioP2
28623;SDS011;15813;46.932;19.658;2023-04-23T00:00:00;51.72;;;21.73;;
28623;SDS011;15813;46.932;19.658;2023-04-23T00:02:25;48.88;;;21.88;;
28623;SDS011;15813;46.932;19.658;2023-04-23T00:04:53;46.03;;;21.45;;
28623;SDS011;15813;46.932;19.658;2023-04-23T00:07:21;43.38;;;21.58;;
28623;SDS011;15813;46.932;19.658;2023-04-23T00:09:48;48.58;;;21.88;;
28623;SDS011;15813;46.932;19.658;2023-04-23T00:12:14;35.40;;;19.45;;
28623;SDS011;15813;46.932;19.658;2023-04-23T00:14:39;47.03;;;21.02;;
28623;SDS011;15813;46.932;19.658;2023-04-23T00:17:04;43.95;;;19.88;;
28623;SDS011;15813;46.932;19.658;2023-04-23T00:19:30;37.95;;;18.80;;
28623;SDS011;15813;46.932;19.658;2023-04-23T00:21:55;46.42;;;19.73;;
28623;SDS011;15813;46.932;19.658;2023-04-23T00:24:20;35.13;;;17.90;;
28623;SDS011;15813;46.932;19.658;2023-04-23T00:26:46;37.67;;;18.38;;
28623;SDS011;15813;46.932;19.658;2023-04-23T00:29:11;43.85;;;20.42;;
28623;SDS011;15813;46.932;19.658;2023-04-23T00:31:36;55.03;;;21.77;;
28623;SDS011;15813;46.932;19.658;2023-04-23T00:34:02;45.63;;;21.90;;
28623;SDS011;15813;46.932;19.658;2023-04-23T00:36:27;45.80;;;19.85;;
28623;SDS011;15813;46.932;19.658;2023-04-23T00:38:53;41.05;;;21.48;;
28623;SDS011;15813;46.932;19.658;2023-04-23T00:41:18;41.13;;;18.35;;
28623;SDS011;15813;46.932;19.658;2023-04-23T00:43:43;43.45;;;20.55;;
28623;SDS011;15813;46.932;19.658;2023-04-23T00:46:09;44.83;;;19.83;;
28623;SDS011;15813;46.932;19.658;2023-04-23T00:48:35;41.90;;;19.75;;
28623;SDS011;15813;46.932;19.658;2023-04-23T00:51:04;42.80;;;19.88;;
28623;SDS011;15813;46.932;19.658;2023-04-23T00:53:29;43.30;;;18.13;;
28623;SDS011;15813;46.932;19.658;2023-04-23T00:55:55;47.72;;;21.42;;
28623;SDS011;15813;46.932;19.658;2023-04-23T00:58:20;44.78;;;19.50;;
28623;SDS011;15813;46.932;19.658;2023-04-23T01:00:46;485.55;;;177.68;;
28623;SDS011;15813;46.932;19.658;2023-04-23T01:03:13;416.20;;;132.90;;
28623;SDS011;15813;46.932;19.658;2023-04-23T01:05:41;38.90;;;18.83;;
28623;SDS011;15813;46.932;19.658;2023-04-23T01:08:07;32.13;;;17.08;;
28623;SDS011;15813;46.932;19.658;2023-04-23T01:10:34;33.80;;;17.27;;
28623;SDS011;15813;46.932;19.658;2023-04-23T01:12:59;33.90;;;18.20;;
28623;SDS011;15813;46.932;19.658;2023-04-23T01:15:25;35.80;;;18.20;;
28623;SDS011;15813;46.932;19.658;2023-04-23T01:17:50;34.67;;;18.25;;
28623;SDS011;15813;46.932;19.658;2023-04-23T01:20:17;36.03;;;18.55;;
28623;SDS011;15813;46.932;19.658;2023-04-23T01:22:42;30.88;;;16.73;;
28623;SDS011;15813;46.932;19.658;2023-04-23T01:25:08;38.75;;;19.27;;
28623;SDS011;15813;46.932;19.658;2023-04-23T01:27:34;42.00;;;18.45;;
28623;SDS011;15813;46.932;19.658;2023-04-23T01:30:00;27.80;;;16.42;;
28623;SDS011;15813;46.932;19.658;2023-04-23T01:32:27;35.15;;;16.95;;
28623;SDS011;15813;46.932;19.658;2023-04-23T01:34:52;42.85;;;17.92;;
28623;SDS011;15813;46.932;19.658;2023-04-23T01:37:18;34.22;;;16.67;;
28623;SDS011;15813;46.932;19.658;2023-04-23T01:39:43;32.38;;;16.23;;
28623;SDS011;15813;46.932;19.658;2023-04-23T01:42:09;34.28;;;16.83;;
28623;SDS011;15813;46.932;19.658;2023-04-23T01:44:35;36.42;;;16.65;;
28623;SDS011;15813;46.932;19.658;2023-04-23T01:47:00;38.72;;;17.38;;
28623;SDS011;15813;46.932;19.658;2023-04-23T01:49:25;33.58;;;17.63;;
28623;SDS011;15813;46.932;19.658;2023-04-23T01:51:51;37.03;;;17.50;;
28623;SDS011;15813;46.932;19.658;2023-04-23T01:54:16;32.00;;;17.35;;
28623;SDS011;15813;46.932;19.658;2023-04-23T01:56:42;45.33;;;17.85;;
28623;SDS011;15813;46.932;19.658;2023-04-23T01:59:07;32.38;;;17.63;;
28623;SDS011;15813;46.932;19.658;2023-04-23T02:01:42;34.85;;;17.38;;
28623;SDS011;15813;46.932;19.658;2023-04-23T02:04:08;37.47;;;17.08;;
28623;SDS011;15813;46.932;19.658;2023-04-23T02:06:34;34.90;;;17.33;;
28623;SDS011;15813;46.932;19.658;2023-04-23T02:08:59;36.38;;;17.63;;
28623;SDS011;15813;46.932;19.658;2023-04-23T02:11:24;31.77;;;16.35;;
28623;SDS011;15813;46.932;19.658;2023-04-23T02:13:50;34.38;;;16.63;;
28623;SDS011;15813;46.932;19.658;2023-04-23T02:16:15;40.30;;;16.35;;
28623;SDS011;15813;46.932;19.658;2023-04-23T02:18:40;28.58;;;16.73;;
28623;SDS011;15813;46.932;19.658;2023-04-23T02:21:06;30.55;;;16.95;;
28623;SDS011;15813;46.932;19.658;2023-04-23T02:23:31;29.48;;;16.83;;
28623;SDS011;15813;46.932;19.658;2023-04-23T02:25:57;36.85;;;17.45;;
28623;SDS011;15813;46.932;19.658;2023-04-23T02:28:22;37.47;;;16.40;;
28623;SDS011;15813;46.932;19.658;2023-04-23T02:30:47;37.88;;;16.50;;
28623;SDS011;15813;46.932;19.658;2023-04-23T02:33:13;36.03;;;17.48;;
28623;SDS011;15813;46.932;19.658;2023-04-23T02:35:38;41.03;;;19.00;;
28623;SDS011;15813;46.932;19.658;2023-04-23T02:38:03;35.53;;;17.30;;
28623;SDS011;15813;46.932;19.658;2023-04-23T02:40:29;40.42;;;17.80;;
28623;SDS011;15813;46.932;19.658;2023-04-23T02:42:54;34.55;;;18.23;;
28623;SDS011;15813;46.932;19.658;2023-04-23T02:45:19;37.85;;;16.58;;
28623;SDS011;15813;46.932;19.658;2023-04-23T02:47:45;34.28;;;18.48;;
28623;SDS011;15813;46.932;19.658;2023-04-23T02:50:10;32.65;;;16.48;;
28623;SDS011;15813;46.932;19.658;2023-04-23T02:52:35;37.33;;;16.65;;
28623;SDS011;15813;46.932;19.658;2023-04-23T02:55:01;31.70;;;16.67;;
28623;SDS011;15813;46.932;19.658;2023-04-23T02:57:27;34.95;;;16.48;;
28623;SDS011;15813;46.932;19.658;2023-04-23T02:59:53;30.30;;;16.83;;
28623;SDS011;15813;46.932;19.658;2023-04-23T03:02:18;31.65;;;16.35;;
28623;SDS011;15813;46.932;19.658;2023-04-23T03:04:43;35.30;;;16.92;;
28623;SDS011;15813;46.932;19.658;2023-04-23T03:07:09;34.15;;;17.30;;
28623;SDS011;15813;46.932;19.658;2023-04-23T03:09:34;34.05;;;16.25;;
28623;SDS011;15813;46.932;19.658;2023-04-23T03:12:00;35.05;;;16.63;;
28623;SDS011;15813;46.932;19.658;2023-04-23T03:14:26;33.63;;;14.80;;
28623;SDS011;15813;46.932;19.658;2023-04-23T03:16:51;25.02;;;14.30;;
28623;SDS011;15813;46.932;19.658;2023-04-23T03:19:16;28.33;;;15.63;;
28623;SDS011;15813;46.932;19.658;2023-04-23T03:21:42;34.92;;;14.38;;
28623;SDS011;15813;46.932;19.658;2023-04-23T03:24:07;28.63;;;14.43;;
28623;SDS011;15813;46.932;19.658;2023-04-23T03:26:32;28.95;;;14.32;;
28623;SDS011;15813;46.932;19.658;2023-04-23T03:28:59;28.88;;;13.77;;
28623;SDS011;15813;46.932;19.658;2023-04-23T03:31:24;23.13;;;12.45;;
28623;SDS011;15813;46.932;19.658;2023-04-23T03:33:49;25.85;;;12.82;;
28623;SDS011;15813;46.932;19.658;2023-04-23T03:36:14;24.20;;;13.43;;
28623;SDS011;15813;46.932;19.658;2023-04-23T03:38:40;24.50;;;13.48;;
28623;SDS011;15813;46.932;19.658;2023-04-23T03:41:05;22.08;;;13.68;;
28623;SDS011;15813;46.932;19.658;2023-04-23T03:43:30;25.95;;;13.57;;
28623;SDS011;15813;46.932;19.658;2023-04-23T03:45:56;26.35;;;14.00;;
28623;SDS011;15813;46.932;19.658;2023-04-23T03:48:21;25.70;;;13.93;;
28623;SDS011;15813;46.932;19.658;2023-04-23T03:50:46;30.73;;;14.75;;
28623;SDS011;15813;46.932;19.658;2023-04-23T03:53:11;24.63;;;13.82;;
28623;SDS011;15813;46.932;19.658;2023-04-23T03:55:37;21.77;;;12.80;;
28623;SDS011;15813;46.932;19.658;2023-04-23T03:58:02;23.98;;;12.30;;
28623;SDS011;15813;46.932;19.658;2023-04-23T04:00:27;26.80;;;13.52;;
28623;SDS011;15813;46.932;19.658;2023-04-23T04:02:53;22.35;;;12.55;;
28623;SDS011;15813;46.932;19.658;2023-04-23T04:05:18;26.85;;;13.73;;
28623;SDS011;15813;46.932;19.658;2023-04-23T04:07:43;28.65;;;13.82;;
28623;SDS011;15813;46.932;19.658;2023-04-23T04:10:09;31.73;;;14.40;;
28623;SDS011;15813;46.932;19.658;2023-04-23T04:12:34;31.27;;;14.27;;
28623;SDS011;15813;46.932;19.658;2023-04-23T04:15:01;28.92;;;14.68;;
28623;SDS011;15813;46.932;19.658;2023-04-23T04:17:27;27.13;;;13.52;;
28623;SDS011;15813;46.932;19.658;2023-04-23T04:19:52;33.20;;;15.60;;
28623;SDS011;15813;46.932;19.658;2023-04-23T04:22:17;23.40;;;13.30;;
28623;SDS011;15813;46.932;19.658;2023-04-23T04:24:43;30.98;;;14.27;;
28623;SDS011;15813;46.932;19.658;2023-04-23T04:27:08;26.40;;;14.20;;
28623;SDS011;15813;46.932;19.658;2023-04-23T04:29:33;26.25;;;12.63;;
28623;SDS011;15813;46.932;19.658;2023-04-23T04:31:59;36.05;;;16.40;;
28623;SDS011;15813;46.932;19.658;2023-04-23T04:34:25;41.03;;;19.10;;
28623;SDS011;15813;46.932;19.658;2023-04-23T04:36:50;47.60;;;21.00;;
28623;SDS011;15813;46.932;19.658;2023-04-23T04:39:18;50.88;;;21.75;;
28623;SDS011;15813;46.932;19.658;2023-04-23T04:41:43;51.78;;;23.92;;
28623;SDS011;15813;46.932;19.658;2023-04-23T04:44:09;63.95;;;28.23;;
28623;SDS011;15813;46.932;19.658;2023-04-23T04:46:34;64.13;;;27.35;;
28623;SDS011;15813;46.932;19.658;2023-04-23T04:49:10;50.28;;;22.55;;
28623;SDS011;15813;46.932;19.658;2023-04-23T04:51:36;40.08;;;19.35;;
28623;SDS011;15813;46.932;19.658;2023-04-23T04:54:01;42.92;;;19.50;;
28623;SDS011;15813;46.932;19.658;2023-04-23T04:56:27;46.75;;;19.42;;
28623;SDS011;15813;46.932;19.658;2023-04-23T04:58:52;41.53;;;20.05;;
28623;SDS011;15813;46.932;19.658;2023-04-23T05:01:18;35.92;;;17.60;;
28623;SDS011;15813;46.932;19.658;2023-04-23T05:03:44;36.28;;;16.30;;
28623;SDS011;15813;46.932;19.658;2023-04-23T05:06:09;30.40;;;15.63;;
28623;SDS011;15813;46.932;19.658;2023-04-23T05:08:35;28.58;;;15.13;;
28623;SDS011;15813;46.932;19.658;2023-04-23T05:11:00;30.70;;;15.57;;
28623;SDS011;15813;46.932;19.658;2023-04-23T05:13:26;28.13;;;14.90;;
28623;SDS011;15813;46.932;19.658;2023-04-23T05:15:51;29.85;;;14.73;;
28623;SDS011;15813;46.932;19.658;2023-04-23T05:18:16;33.70;;;15.10;;
28623;SDS011;15813;46.932;19.658;2023-04-23T05:20:42;29.52;;;15.75;;
28623;SDS011;15813;46.932;19.658;2023-04-23T05:23:07;38.42;;;17.75;;
28623;SDS011;15813;46.932;19.658;2023-04-23T05:25:32;33.85;;;14.18;;
28623;SDS011;15813;46.932;19.658;2023-04-23T05:27:59;40.20;;;16.45;;
28623;SDS011;15813;46.932;19.658;2023-04-23T05:30:24;34.47;;;16.25;;
28623;SDS011;15813;46.932;19.658;2023-04-23T05:32:50;32.22;;;15.98;;
28623;SDS011;15813;46.932;19.658;2023-04-23T05:35:15;27.38;;;13.68;;
28623;SDS011;15813;46.932;19.658;2023-04-23T05:37:40;29.58;;;16.40;;
28623;SDS011;15813;46.932;19.658;2023-04-23T05:40:06;28.45;;;15.50;;
28623;SDS011;15813;46.932;19.658;2023-04-23T05:42:31;35.05;;;14.82;;
28623;SDS011;15813;46.932;19.658;2023-04-23T05:44:58;24.48;;;14.77;;
28623;SDS011;15813;46.932;19.658;2023-04-23T05:47:23;26.02;;;15.20;;
28623;SDS011;15813;46.932;19.658;2023-04-23T05:49:48;23.95;;;13.57;;
28623;SDS011;15813;46.932;19.658;2023-04-23T05:52:14;27.50;;;14.57;;
28623;SDS011;15813;46.932;19.658;2023-04-23T05:54:40;21.75;;;14.65;;
28623;SDS011;15813;46.932;19.658;2023-04-23T05:57:05;25.83;;;12.95;;
28623;SDS011;15813;46.932;19.658;2023-04-23T05:59:30;23.77;;;14.60;;
28623;SDS011;15813;46.932;19.658;2023-04-23T06:01:56;28.98;;;14.13;;
28623;SDS011;15813;46.932;19.658;2023-04-23T06:04:21;20.80;;;12.93;;
28623;SDS011;15813;46.932;19.658;2023-04-23T06:06:46;25.20;;;12.43;;
28623;SDS011;15813;46.932;19.658;2023-04-23T06:09:11;18.35;;;9.40;;
28623;SDS011;15813;46.932;19.658;2023-04-23T06:11:37;19.70;;;8.97;;
28623;SDS011;15813;46.932;19.658;2023-04-23T06:14:02;20.95;;;8.98;;
28623;SDS011;15813;46.932;19.658;2023-04-23T06:16:27;17.35;;;8.73;;
28623;SDS011;15813;46.932;19.658;2023-04-23T06:18:53;13.60;;;8.27;;
28623;SDS011;15813;46.932;19.658;2023-04-23T06:21:20;14.07;;;8.07;;
28623;SDS011;15813;46.932;19.658;2023-04-23T06:23:45;16.30;;;8.45;;
28623;SDS011;15813;46.932;19.658;2023-04-23T06:26:10;12.27;;;8.17;;
28623;SDS011;15813;46.932;19.658;2023-04-23T06:28:36;14.88;;;8.70;;
28623;SDS011;15813;46.932;19.658;2023-04-23T06:31:02;15.65;;;8.40;;
28623;SDS011;15813;46.932;19.658;2023-04-23T06:33:29;13.13;;;8.07;;
28623;SDS011;15813;46.932;19.658;2023-04-23T06:35:54;11.20;;;8.30;;
28623;SDS011;15813;46.932;19.658;2023-04-23T06:38:20;15.52;;;7.93;;
28623;SDS011;15813;46.932;19.658;2023-04-23T06:40:47;14.80;;;7.28;;
28623;SDS011;15813;46.932;19.658;2023-04-23T06:43:12;11.68;;;6.95;;
28623;SDS011;15813;46.932;19.658;2023-04-23T06:45:38;13.50;;;7.43;;
28623;SDS011;15813;46.932;19.658;2023-04-23T06:48:04;12.98;;;7.00;;
28623;SDS011;15813;46.932;19.658;2023-04-23T06:50:29;13.70;;;6.75;;
28623;SDS011;15813;46.932;19.658;2023-04-23T06:52:55;12.20;;;6.50;;
28623;SDS011;15813;46.932;19.658;2023-04-23T06:55:20;13.65;;;6.43;;
28623;SDS011;15813;46.932;19.658;2023-04-23T06:57:50;12.77;;;6.50;;
28623;SDS011;15813;46.932;19.658;2023-04-23T07:00:15;8.32;;;5.47;;
28623;SDS011;15813;46.932;19.658;2023-04-23T07:02:40;12.52;;;5.47;;
28623;SDS011;15813;46.932;19.658;2023-04-23T07:05:05;12.60;;;6.47;;
28623;SDS011;15813;46.932;19.658;2023-04-23T07:07:31;12.55;;;6.05;;
28623;SDS011;15813;46.932;19.658;2023-04-23T07:09:56;16.77;;;6.10;;
28623;SDS011;15813;46.932;19.658;2023-04-23T07:12:22;9.60;;;5.05;;
28623;SDS011;15813;46.932;19.658;2023-04-23T07:14:47;7.13;;;5.05;;
28623;SDS011;15813;46.932;19.658;2023-04-23T07:17:12;8.38;;;5.15;;
28623;SDS011;15813;46.932;19.658;2023-04-23T07:19:38;7.07;;;4.80;;
28623;SDS011;15813;46.932;19.658;2023-04-23T07:22:03;7.80;;;4.97;;
28623;SDS011;15813;46.932;19.658;2023-04-23T07:24:28;7.30;;;4.55;;
28623;SDS011;15813;46.932;19.658;2023-04-23T07:26:53;12.03;;;4.73;;
28623;SDS011;15813;46.932;19.658;2023-04-23T07:29:19;6.78;;;4.95;;
28623;SDS011;15813;46.932;19.658;2023-04-23T07:31:44;9.48;;;4.85;;
28623;SDS011;15813;46.932;19.658;2023-04-23T07:34:10;9.90;;;5.35;;
28623;SDS011;15813;46.932;19.658;2023-04-23T07:36:35;8.55;;;5.00;;
28623;SDS011;15813;46.932;19.658;2023-04-23T07:39:01;9.73;;;5.32;;
28623;SDS011;15813;46.932;19.658;2023-04-23T07:41:26;6.43;;;4.53;;
28623;SDS011;15813;46.932;19.658;2023-04-23T07:43:51;9.43;;;5.38;;
28623;SDS011;15813;46.932;19.658;2023-04-23T07:46:17;6.57;;;4.50;;
28623;SDS011;15813;46.932;19.658;2023-04-23T07:48:42;11.65;;;5.38;;
28623;SDS011;15813;46.932;19.658;2023-04-23T07:51:07;15.93;;;6.15;;
28623;SDS011;15813;46.932;19.658;2023-04-23T07:53:33;14.45;;;5.00;;
28623;SDS011;15813;46.932;19.658;2023-04-23T07:55:59;13.10;;;5.63;;
28623;SDS011;15813;46.932;19.658;2023-04-23T07:58:24;14.40;;;5.72;;
28623;SDS011;15813;46.932;19.658;2023-04-23T08:00:50;11.75;;;5.80;;
28623;SDS011;15813;46.932;19.658;2023-04-23T08:03:15;8.98;;;5.32;;
28623;SDS011;15813;46.932;19.658;2023-04-23T08:05:40;6.43;;;4.70;;
28623;SDS011;15813;46.932;19.658;2023-04-23T08:08:06;8.60;;;5.15;;
28623;SDS011;15813;46.932;19.658;2023-04-23T08:10:32;6.60;;;4.70;;
28623;SDS011;15813;46.932;19.658;2023-04-23T08:12:58;11.98;;;5.07;;
28623;SDS011;15813;46.932;19.658;2023-04-23T08:15:23;7.32;;;5.18;;
28623;SDS011;15813;46.932;19.658;2023-04-23T08:17:48;8.30;;;6.23;;
28623;SDS011;15813;46.932;19.658;2023-04-23T08:20:13;6.57;;;4.33;;
28623;SDS011;15813;46.932;19.658;2023-04-23T08:22:39;10.43;;;4.43;;
28623;SDS011;15813;46.932;19.658;2023-04-23T08:25:04;16.67;;;4.93;;
28623;SDS011;15813;46.932;19.658;2023-04-23T08:27:30;8.20;;;5.50;;
28623;SDS011;15813;46.932;19.658;2023-04-23T08:29:55;6.63;;;4.30;;
28623;SDS011;15813;46.932;19.658;2023-04-23T08:32:20;9.63;;;4.43;;
28623;SDS011;15813;46.932;19.658;2023-04-23T08:34:46;9.82;;;4.45;;
28623;SDS011;15813;46.932;19.658;2023-04-23T08:37:11;8.50;;;4.23;;
28623;SDS011;15813;46.932;19.658;2023-04-23T08:39:36;6.47;;;3.47;;
28623;SDS011;15813;46.932;19.658;2023-04-23T08:42:09;11.32;;;4.82;;
28623;SDS011;15813;46.932;19.658;2023-04-23T08:44:35;8.55;;;4.20;;
28623;SDS011;15813;46.932;19.658;2023-04-23T08:47:02;8.27;;;4.10;;
28623;SDS011;15813;46.932;19.658;2023-04-23T08:49:28;5.82;;;3.80;;
28623;SDS011;15813;46.932;19.658;2023-04-23T08:51:56;5.30;;;3.70;;
28623;SDS011;15813;46.932;19.658;2023-04-23T08:56:56;10.48;;;4.93;;
28623;SDS011;15813;46.932;19.658;2023-04-23T08:59:22;8.07;;;3.58;;
28623;SDS011;15813;46.932;19.658;2023-04-23T09:01:48;9.25;;;3.90;;
28623;SDS011;15813;46.932;19.658;2023-04-23T09:04:13;8.50;;;3.47;;
28623;SDS011;15813;46.932;19.658;2023-04-23T09:06:41;9.35;;;3.47;;
28623;SDS011;15813;46.932;19.658;2023-04-23T09:09:06;6.18;;;3.33;;
28623;SDS011;15813;46.932;19.658;2023-04-23T09:11:32;4.75;;;3.38;;
28623;SDS011;15813;46.932;19.658;2023-04-23T09:13:58;5.97;;;3.58;;
28623;SDS011;15813;46.932;19.658;2023-04-23T09:16:24;8.27;;;4.03;;
28623;SDS011;15813;46.932;19.658;2023-04-23T09:18:50;10.32;;;3.60;;
28623;SDS011;15813;46.932;19.658;2023-04-23T09:21:16;28.88;;;4.60;;
28623;SDS011;15813;46.932;19.658;2023-04-23T09:23:42;10.18;;;4.20;;
28623;SDS011;15813;46.932;19.658;2023-04-23T09:26:07;9.93;;;3.72;;
28623;SDS011;15813;46.932;19.658;2023-04-23T09:28:35;6.63;;;3.77;;
28623;SDS011;15813;46.932;19.658;2023-04-23T09:33:27;7.35;;;3.58;;
28623;SDS011;15813;46.932;19.658;2023-04-23T09:35:52;10.05;;;4.22;;
28623;SDS011;15813;46.932;19.658;2023-04-23T09:38:18;10.35;;;4.15;;
28623;SDS011;15813;46.932;19.658;2023-04-23T09:40:43;3.97;;;3.50;;
28623;SDS011;15813;46.932;19.658;2023-04-23T09:43:09;5.47;;;3.75;;
28623;SDS011;15813;46.932;19.658;2023-04-23T09:45:34;13.40;;;4.18;;
28623;SDS011;15813;46.932;19.658;2023-04-23T09:47:59;8.40;;;4.18;;
28623;SDS011;15813;46.932;19.658;2023-04-23T09:50:35;6.97;;;4.10;;
28623;SDS011;15813;46.932;19.658;2023-04-23T09:53:01;9.10;;;3.88;;
28623;SDS011;15813;46.932;19.658;2023-04-23T09:55:27;8.27;;;3.70;;
28623;SDS011;15813;46.932;19.658;2023-04-23T09:57:53;5.95;;;3.38;;
28623;SDS011;15813;46.932;19.658;2023-04-23T10:00:18;8.00;;;4.38;;
28623;SDS011;15813;46.932;19.658;2023-04-23T10:02:45;6.22;;;3.80;;
28623;SDS011;15813;46.932;19.658;2023-04-23T10:05:18;6.70;;;4.07;;
28623;SDS011;15813;46.932;19.658;2023-04-23T10:07:44;9.63;;;3.95;;
28623;SDS011;15813;46.932;19.658;2023-04-23T10:10:11;8.75;;;4.10;;
28623;SDS011;15813;46.932;19.658;2023-04-23T10:12:36;4.13;;;3.45;;
28623;SDS011;15813;46.932;19.658;2023-04-23T10:15:03;13.23;;;4.20;;
28623;SDS011;15813;46.932;19.658;2023-04-23T10:17:29;6.28;;;4.05;;
28623;SDS011;15813;46.932;19.658;2023-04-23T10:19:54;7.50;;;4.40;;
28623;SDS011;15813;46.932;19.658;2023-04-23T10:22:19;7.60;;;3.70;;
28623;SDS011;15813;46.932;19.658;2023-04-23T10:24:45;5.45;;;3.90;;
28623;SDS011;15813;46.932;19.658;2023-04-23T10:27:15;4.82;;;3.30;;
28623;SDS011;15813;46.932;19.658;2023-04-23T10:29:40;6.70;;;3.25;;
28623;SDS011;15813;46.932;19.658;2023-04-23T10:32:06;5.72;;;3.50;;
28623;SDS011;15813;46.932;19.658;2023-04-23T10:34:32;6.43;;;3.25;;
28623;SDS011;15813;46.932;19.658;2023-04-23T10:36:57;6.35;;;3.10;;
28623;SDS011;15813;46.932;19.658;2023-04-23T10:39:26;6.55;;;3.25;;
28623;SDS011;15813;46.932;19.658;2023-04-23T10:41:52;5.63;;;2.88;;
28623;SDS011;15813;46.932;19.658;2023-04-23T10:44:18;6.47;;;3.22;;
28623;SDS011;15813;46.932;19.658;2023-04-23T10:46:55;4.38;;;3.20;;
28623;SDS011;15813;46.932;19.658;2023-04-23T10:49:24;6.22;;;3.58;;
28623;SDS011;15813;46.932;19.658;2023-04-23T10:54:31;5.50;;;3.47;;
28623;SDS011;15813;46.932;19.658;2023-04-23T10:57:01;7.68;;;3.40;;
28623;SDS011;15813;46.932;19.658;2023-04-23T10:59:27;5.65;;;3.25;;
28623;SDS011;15813;46.932;19.658;2023-04-23T11:01:54;13.25;;;3.88;;
28623;SDS011;15813;46.932;19.658;2023-04-23T11:09:30;6.47;;;3.00;;
28623;SDS011;15813;46.932;19.658;2023-04-23T11:11:56;4.05;;;3.10;;
28623;SDS011;15813;46.932;19.658;2023-04-23T11:14:35;6.82;;;3.28;;
28623;SDS011;15813;46.932;19.658;2023-04-23T11:17:01;15.65;;;3.50;;
28623;SDS011;15813;46.932;19.658;2023-04-23T11:19:27;6.10;;;3.03;;
28623;SDS011;15813;46.932;19.658;2023-04-23T11:22:12;4.95;;;3.38;;
28623;SDS011;15813;46.932;19.658;2023-04-23T11:24:39;6.88;;;3.30;;
28623;SDS011;15813;46.932;19.658;2023-04-23T11:27:06;5.80;;;3.45;;
28623;SDS011;15813;46.932;19.658;2023-04-23T11:29:32;8.20;;;4.10;;
28623;SDS011;15813;46.932;19.658;2023-04-23T11:31:58;6.57;;;3.35;;
28623;SDS011;15813;46.932;19.658;2023-04-23T11:34:23;6.18;;;3.33;;
28623;SDS011;15813;46.932;19.658;2023-04-23T11:36:50;5.20;;;3.05;;
28623;SDS011;15813;46.932;19.658;2023-04-23T11:39:16;6.95;;;2.97;;
28623;SDS011;15813;46.932;19.658;2023-04-23T11:41:43;3.35;;;2.80;;
28623;SDS011;15813;46.932;19.658;2023-04-23T11:44:10;5.82;;;3.15;;
28623;SDS011;15813;46.932;19.658;2023-04-23T11:46:36;7.25;;;3.65;;
28623;SDS011;15813;46.932;19.658;2023-04-23T11:49:02;5.45;;;3.05;;
28623;SDS011;15813;46.932;19.658;2023-04-23T11:51:27;5.28;;;3.10;;
28623;SDS011;15813;46.932;19.658;2023-04-23T11:53:52;5.15;;;3.67;;
28623;SDS011;15813;46.932;19.658;2023-04-23T11:56:18;4.55;;;2.83;;
28623;SDS011;15813;46.932;19.658;2023-04-23T11:58:57;6.70;;;3.30;;
28623;SDS011;15813;46.932;19.658;2023-04-23T12:01:22;4.70;;;3.45;;
28623;SDS011;15813;46.932;19.658;2023-04-23T12:03:47;7.57;;;3.60;;
28623;SDS011;15813;46.932;19.658;2023-04-23T12:06:15;6.22;;;3.33;;
28623;SDS011;15813;46.932;19.658;2023-04-23T12:08:40;5.85;;;3.50;;
28623;SDS011;15813;46.932;19.658;2023-04-23T12:11:07;4.80;;;2.85;;
28623;SDS011;15813;46.932;19.658;2023-04-23T12:13:32;6.20;;;3.33;;
28623;SDS011;15813;46.932;19.658;2023-04-23T12:15:58;6.05;;;3.22;;
28623;SDS011;15813;46.932;19.658;2023-04-23T12:18:32;5.00;;;3.30;;
28623;SDS011;15813;46.932;19.658;2023-04-23T12:23:32;5.38;;;2.95;;
28623;SDS011;15813;46.932;19.658;2023-04-23T12:25:59;7.97;;;3.30;;
28623;SDS011;15813;46.932;19.658;2023-04-23T12:28:26;6.90;;;2.78;;
28623;SDS011;15813;46.932;19.658;2023-04-23T12:30:51;4.28;;;3.03;;
28623;SDS011;15813;46.932;19.658;2023-04-23T12:33:16;8.97;;;3.20;;
28623;SDS011;15813;46.932;19.658;2023-04-23T12:35:48;7.22;;;3.20;;
28623;SDS011;15813;46.932;19.658;2023-04-23T12:38:24;6.45;;;3.45;;
28623;SDS011;15813;46.932;19.658;2023-04-23T12:40:53;4.00;;;2.97;;
28623;SDS011;15813;46.932;19.658;2023-04-23T12:43:18;3.80;;;3.20;;
28623;SDS011;15813;46.932;19.658;2023-04-23T12:45:43;12.57;;;4.53;;
28623;SDS011;15813;46.932;19.658;2023-04-23T12:48:09;6.07;;;3.65;;
28623;SDS011;15813;46.932;19.658;2023-04-23T12:50:35;5.00;;;2.92;;
28623;SDS011;15813;46.932;19.658;2023-04-23T12:53:01;8.38;;;3.38;;
28623;SDS011;15813;46.932;19.658;2023-04-23T12:55:26;6.18;;;3.40;;
28623;SDS011;15813;46.932;19.658;2023-04-23T12:57:52;3.67;;;2.80;;
28623;SDS011;15813;46.932;19.658;2023-04-23T13:00:17;5.60;;;3.30;;
28623;SDS011;15813;46.932;19.658;2023-04-23T13:02:42;8.10;;;4.45;;
28623;SDS011;15813;46.932;19.658;2023-04-23T13:05:08;7.50;;;3.40;;
28623;SDS011;15813;46.932;19.658;2023-04-23T13:07:33;5.93;;;3.40;;
28623;SDS011;15813;46.932;19.658;2023-04-23T13:09:59;5.60;;;3.58;;
28623;SDS011;15813;46.932;19.658;2023-04-23T13:12:25;5.38;;;3.30;;
28623;SDS011;15813;46.932;19.658;2023-04-23T13:14:50;4.15;;;3.10;;
28623;SDS011;15813;46.932;19.658;2023-04-23T13:17:15;5.15;;;3.60;;
28623;SDS011;15813;46.932;19.658;2023-04-23T13:19:41;6.82;;;3.60;;
28623;SDS011;15813;46.932;19.658;2023-04-23T13:22:06;5.50;;;3.37;;
28623;SDS011;15813;46.932;19.658;2023-04-23T13:24:31;11.53;;;3.73;;
28623;SDS011;15813;46.932;19.658;2023-04-23T13:26:57;7.25;;;3.90;;
28623;SDS011;15813;46.932;19.658;2023-04-23T13:29:22;6.87;;;4.10;;
28623;SDS011;15813;46.932;19.658;2023-04-23T13:31:48;4.90;;;3.60;;
28623;SDS011;15813;46.932;19.658;2023-04-23T13:34:13;12.37;;;3.80;;
28623;SDS011;15813;46.932;19.658;2023-04-23T13:36:38;6.67;;;3.70;;
28623;SDS011;15813;46.932;19.658;2023-04-23T13:39:06;15.10;;;4.17;;
28623;SDS011;15813;46.932;19.658;2023-04-23T13:41:33;6.65;;;3.08;;
28623;SDS011;15813;46.932;19.658;2023-04-23T13:43:58;4.97;;;3.42;;
28623;SDS011;15813;46.932;19.658;2023-04-23T13:46:23;6.28;;;3.70;;
28623;SDS011;15813;46.932;19.658;2023-04-23T13:48:49;7.95;;;3.90;;
28623;SDS011;15813;46.932;19.658;2023-04-23T13:51:14;7.73;;;4.63;;
28623;SDS011;15813;46.932;19.658;2023-04-23T13:53:39;14.90;;;3.75;;
28623;SDS011;15813;46.932;19.658;2023-04-23T13:56:05;8.97;;;6.00;;
28623;SDS011;15813;46.932;19.658;2023-04-23T13:58:30;9.68;;;4.32;;
28623;SDS011;15813;46.932;19.658;2023-04-23T14:00:55;5.93;;;3.73;;
28623;SDS011;15813;46.932;19.658;2023-04-23T14:03:20;38.22;;;19.67;;
28623;SDS011;15813;46.932;19.658;2023-04-23T14:05:46;11.68;;;4.68;;
28623;SDS011;15813;46.932;19.658;2023-04-23T14:08:11;11.52;;;7.22;;
28623;SDS011;15813;46.932;19.658;2023-04-23T14:10:37;18.15;;;12.57;;
28623;SDS011;15813;46.932;19.658;2023-04-23T14:13:02;10.52;;;5.22;;
28623;SDS011;15813;46.932;19.658;2023-04-23T14:15:28;8.90;;;4.70;;
28623;SDS011;15813;46.932;19.658;2023-04-23T14:17:54;8.35;;;4.35;;
28623;SDS011;15813;46.932;19.658;2023-04-23T14:20:20;7.97;;;4.25;;
28623;SDS011;15813;46.932;19.658;2023-04-23T14:22:49;4.22;;;3.47;;
28623;SDS011;15813;46.932;19.658;2023-04-23T14:25:22;5.30;;;3.92;;
28623;SDS011;15813;46.932;19.658;2023-04-23T14:27:49;5.82;;;3.50;;